PWSweather.com
Personal Weather Stations
Station Observations
KJ4AJP
Beautiful Downtown Gardner, Martin, TN 38237

Beautiful Downtown GardnerMartin, TN 38237

Lat: 36.358, Lon: -88.8994

Elevation: 384.3

Station Type: TP1080WC

http://weather.mambm.com/

High Low Average
Temperature 50.9°F10.5°C 29.7°F-1.3°C 38.9°F3.8°C
Dew Point 43.3°F6.3°C 29.4°F-1.4°C 36.2°F2.3°C
Winds 8.3 mph 13.4 kmh Calm Calm 2.0 mph WNW3.2 kmh WNW
Wind Gusts 15.2 mph24.5 kmh -- 7.0 mph11.3 kmh
Humidity 99% 75% 91%
Pressure 30.23 in1023.7 mb 30.10 in1019.3 mb -
Precipitation 0.02 in0.5 mm - -
Hour Temp Dew Point Humidity Winds Wind Gusts Pressure Precip Precip Rate Daily Precip Total
12:00 AM 35.8°F2.1°C 35.5°F1.9°C 99% 4.5 mph NNW7.2 kmh NNW 15.2 mph24.5 kmh 30.09 in1019.0 mb 0.00 in0.0 mm 0.00 in0.0 mm 0.00 in0.0 mm
12:15 AM 35.6°F2.0°C 35.4°F1.9°C 99% 3.8 mph NNW6.1 kmh NNW 8.3 mph13.4 kmh 30.10 in1019.3 mb 0.01 in0.3 mm 0.04 in1.0 mm 0.01 in0.3 mm
12:30 AM 35.4°F1.9°C 35.2°F1.8°C 99% 4.5 mph NNW7.2 kmh NNW 9.2 mph14.8 kmh 30.10 in1019.3 mb 0.01 in0.3 mm 0.00 in0.0 mm 0.01 in0.3 mm
12:45 AM 35.4°F1.9°C 35.2°F1.8°C 99% 6.9 mph NW11.1 kmh NW 13.0 mph20.9 kmh 30.10 in1019.3 mb 0.01 in0.3 mm 0.00 in0.0 mm 0.01 in0.3 mm
01:00 AM 35.2°F1.8°C 35.0°F1.7°C 99% 4.5 mph NNW7.2 kmh NNW 11.4 mph18.3 kmh 30.11 in1019.6 mb 0.01 in0.3 mm 0.00 in0.0 mm 0.01 in0.3 mm
01:15 AM 35.2°F1.8°C 35.0°F1.7°C 99% 3.8 mph NW6.1 kmh NW 10.7 mph17.2 kmh 30.10 in1019.3 mb 0.00 in0.0 mm 0.00 in0.0 mm 0.01 in0.3 mm
01:30 AM 35.2°F1.8°C 35.0°F1.7°C 99% 0.7 mph NNW1.1 kmh NNW 6.9 mph11.1 kmh 30.10 in1019.3 mb 0.00 in0.0 mm 0.00 in0.0 mm 0.01 in0.3 mm
01:45 AM 35.2°F1.8°C 35.0°F1.7°C 99% 1.6 mph NW2.6 kmh NW 4.5 mph7.2 kmh 30.10 in1019.3 mb 0.00 in0.0 mm 0.00 in0.0 mm 0.01 in0.3 mm
02:00 AM 35.4°F1.9°C 35.2°F1.8°C 99% 0.7 mph WNW1.1 kmh WNW 5.4 mph8.7 kmh 30.10 in1019.3 mb 0.00 in0.0 mm 0.00 in0.0 mm 0.01 in0.3 mm
02:15 AM 35.6°F2.0°C 35.4°F1.9°C 99% 1.6 mph NW2.6 kmh NW 4.5 mph7.2 kmh 30.10 in1019.3 mb 0.00 in0.0 mm 0.00 in0.0 mm 0.01 in0.3 mm
02:30 AM 35.4°F1.9°C 35.2°F1.8°C 99% 1.6 mph NW2.6 kmh NW 4.5 mph7.2 kmh 30.11 in1019.6 mb 0.00 in0.0 mm 0.00 in0.0 mm 0.01 in0.3 mm
02:45 AM 35.1°F1.7°C 34.8°F1.6°C 99% 0.7 mph NW1.1 kmh NW 5.4 mph8.7 kmh 30.10 in1019.3 mb 0.00 in0.0 mm 0.00 in0.0 mm 0.01 in0.3 mm
03:00 AM 34.9°F1.6°C 34.6°F1.4°C 99% 1.6 mph NNW2.6 kmh NNW 6.0 mph9.7 kmh 30.10 in1019.3 mb 0.00 in0.0 mm 0.00 in0.0 mm 0.01 in0.3 mm
03:15 AM 34.5°F1.4°C 34.3°F1.3°C 99% 1.6 mph NW2.6 kmh NW 4.5 mph7.2 kmh 30.11 in1019.6 mb 0.00 in0.0 mm 0.00 in0.0 mm 0.01 in0.3 mm
03:30 AM 34.5°F1.4°C 34.3°F1.3°C 99% 2.2 mph NW3.5 kmh NW 6.9 mph11.1 kmh 30.10 in1019.3 mb 0.00 in0.0 mm 0.00 in0.0 mm 0.01 in0.3 mm
03:45 AM 34.2°F1.2°C 33.9°F1.1°C 99% 1.6 mph NW2.6 kmh NW 3.8 mph6.1 kmh 30.11 in1019.6 mb 0.00 in0.0 mm 0.00 in0.0 mm 0.01 in0.3 mm
04:00 AM 34.0°F1.1°C 33.7°F0.9°C 99% 2.2 mph NNW3.5 kmh NNW 6.9 mph11.1 kmh 30.11 in1019.6 mb 0.00 in0.0 mm 0.00 in0.0 mm 0.01 in0.3 mm
04:15 AM 33.8°F1.0°C 33.6°F0.9°C 99% 1.6 mph NNW2.6 kmh NNW 5.4 mph8.7 kmh 30.11 in1019.6 mb 0.00 in0.0 mm 0.00 in0.0 mm 0.01 in0.3 mm
04:30 AM 33.4°F0.8°C 33.2°F0.7°C 99% 1.6 mph NW2.6 kmh NW 4.5 mph7.2 kmh 30.11 in1019.6 mb 0.00 in0.0 mm 0.00 in0.0 mm 0.01 in0.3 mm
04:45 AM 33.1°F0.6°C 32.8°F0.4°C 99% 0.7 mph NNW1.1 kmh NNW 3.1 mph5.0 kmh 30.11 in1019.6 mb 0.00 in0.0 mm 0.00 in0.0 mm 0.01 in0.3 mm
05:00 AM 32.7°F0.4°C 32.5°F0.3°C 99% 0.7 mph NW1.1 kmh NW 3.1 mph5.0 kmh 30.12 in1020.0 mb 0.00 in0.0 mm 0.00 in0.0 mm 0.01 in0.3 mm
05:15 AM 32.5°F0.3°C 32.3°F0.2°C 99% 1.6 mph NW2.6 kmh NW 3.8 mph6.1 kmh 30.12 in1020.0 mb 0.00 in0.0 mm 0.00 in0.0 mm 0.01 in0.3 mm
05:30 AM 32.4°F0.2°C 32.1°F0.1°C 99% 1.6 mph NW2.6 kmh NW 5.4 mph8.7 kmh 30.13 in1020.3 mb 0.00 in0.0 mm 0.00 in0.0 mm 0.01 in0.3 mm
05:45 AM 32.2°F0.1°C 31.9°F-0.1°C 99% 2.2 mph NW3.5 kmh NW 3.8 mph6.1 kmh 30.14 in1020.7 mb 0.00 in0.0 mm 0.00 in0.0 mm 0.01 in0.3 mm
06:00 AM 32.2°F0.1°C 31.9°F-0.1°C 99% 3.1 mph NNW5.0 kmh NNW 5.4 mph8.7 kmh 30.14 in1020.7 mb 0.00 in0.0 mm 0.00 in0.0 mm 0.01 in0.3 mm
06:15 AM 32.0°F0.0°C 31.8°F-0.1°C 99% 1.6 mph NNW2.6 kmh NNW 4.5 mph7.2 kmh 30.14 in1020.7 mb 0.00 in0.0 mm 0.00 in0.0 mm 0.01 in0.3 mm
06:30 AM 32.0°F0.0°C 31.8°F-0.1°C 99% 0.7 mph NW1.1 kmh NW 4.5 mph7.2 kmh 30.15 in1021.0 mb 0.00 in0.0 mm 0.00 in0.0 mm 0.01 in0.3 mm
06:45 AM 31.8°F-0.1°C 31.6°F-0.2°C 99% 1.6 mph NW2.6 kmh NW 3.1 mph5.0 kmh 30.15 in1021.0 mb 0.00 in0.0 mm 0.00 in0.0 mm 0.01 in0.3 mm
07:00 AM 31.6°F-0.2°C 31.4°F-0.3°C 99% 1.6 mph NW2.6 kmh NW 3.8 mph6.1 kmh 30.15 in1021.0 mb 0.00 in0.0 mm 0.00 in0.0 mm 0.01 in0.3 mm
07:15 AM 31.5°F-0.3°C 31.2°F-0.4°C 99% 2.2 mph NW3.5 kmh NW 3.1 mph5.0 kmh 30.16 in1021.3 mb 0.00 in0.0 mm 0.00 in0.0 mm 0.01 in0.3 mm
07:30 AM 31.3°F-0.4°C 31.0°F-0.6°C 99% 1.6 mph NW2.6 kmh NW 4.5 mph7.2 kmh 30.16 in1021.3 mb 0.00 in0.0 mm 0.00 in0.0 mm 0.01 in0.3 mm
07:45 AM 31.3°F-0.4°C 31.0°F-0.6°C 99% 1.6 mph NW2.6 kmh NW 3.1 mph5.0 kmh 30.17 in1021.7 mb 0.00 in0.0 mm 0.00 in0.0 mm 0.01 in0.3 mm
08:00 AM 31.8°F-0.1°C 31.6°F-0.2°C 99% 1.6 mph NW2.6 kmh NW 3.1 mph5.0 kmh 30.17 in1021.7 mb 0.00 in0.0 mm 0.00 in0.0 mm 0.01 in0.3 mm
08:15 AM 32.5°F0.3°C 32.3°F0.2°C 99% 2.2 mph NW3.5 kmh NW 6.0 mph9.7 kmh 30.18 in1022.0 mb 0.00 in0.0 mm 0.00 in0.0 mm 0.01 in0.3 mm
08:30 AM 33.8°F1.0°C 33.6°F0.9°C 99% 3.1 mph NW5.0 kmh NW 5.4 mph8.7 kmh 30.18 in1022.0 mb 0.00 in0.0 mm 0.00 in0.0 mm 0.01 in0.3 mm
08:45 AM 35.8°F2.1°C 35.5°F1.9°C 99% 2.2 mph NW3.5 kmh NW 5.4 mph8.7 kmh 30.18 in1022.0 mb 0.00 in0.0 mm 0.00 in0.0 mm 0.01 in0.3 mm
09:00 AM 37.6°F3.1°C 37.3°F2.9°C 99% 2.2 mph NNW3.5 kmh NNW 6.0 mph9.7 kmh 30.19 in1022.4 mb 0.00 in0.0 mm 0.00 in0.0 mm 0.01 in0.3 mm
09:15 AM 39.0°F3.9°C 38.0°F3.3°C 96% 3.8 mph N6.1 kmh N 13.0 mph20.9 kmh 30.19 in1022.4 mb 0.00 in0.0 mm 0.00 in0.0 mm 0.01 in0.3 mm
09:30 AM 40.1°F4.5°C 38.0°F3.3°C 92% 3.1 mph N5.0 kmh N 12.1 mph19.5 kmh 30.19 in1022.4 mb 0.00 in0.0 mm 0.00 in0.0 mm 0.01 in0.3 mm
09:45 AM 41.4°F5.2°C 38.4°F3.6°C 89% 4.5 mph NNW7.2 kmh NNW 9.8 mph15.8 kmh 30.19 in1022.4 mb 0.00 in0.0 mm 0.00 in0.0 mm 0.01 in0.3 mm
10:00 AM 42.3°F5.7°C 38.1°F3.4°C 85% 3.8 mph NNW6.1 kmh NNW 15.2 mph24.5 kmh 30.19 in1022.4 mb 0.00 in0.0 mm 0.00 in0.0 mm 0.01 in0.3 mm
10:15 AM 43.5°F6.4°C 39.0°F3.9°C 84% 5.4 mph NNW8.7 kmh NNW 7.6 mph12.2 kmh 30.19 in1022.4 mb 0.00 in0.0 mm 0.00 in0.0 mm 0.01 in0.3 mm
10:30 AM 44.6°F7.0°C 38.8°F3.8°C 80% 8.3 mph NNW13.4 kmh NNW 13.6 mph21.9 kmh 30.20 in1022.7 mb 0.00 in0.0 mm 0.00 in0.0 mm 0.01 in0.3 mm
10:45 AM 45.1°F7.3°C 39.0°F3.9°C 79% 8.3 mph N13.4 kmh N 13.6 mph21.9 kmh 30.19 in1022.4 mb 0.00 in0.0 mm 0.00 in0.0 mm 0.01 in0.3 mm
11:00 AM 46.0°F7.8°C 39.9°F4.4°C 79% 5.4 mph NNW8.7 kmh NNW 12.1 mph19.5 kmh 30.19 in1022.4 mb 0.00 in0.0 mm 0.00 in0.0 mm 0.01 in0.3 mm
11:15 AM 47.1°F8.4°C 40.6°F4.8°C 78% 2.2 mph N3.5 kmh N 12.1 mph19.5 kmh 30.19 in1022.4 mb 0.00 in0.0 mm 0.00 in0.0 mm 0.01 in0.3 mm
11:30 AM 48.4°F9.1°C 42.2°F5.7°C 79% 3.1 mph NW5.0 kmh NW 8.3 mph13.4 kmh 30.19 in1022.4 mb 0.00 in0.0 mm 0.00 in0.0 mm 0.01 in0.3 mm
11:45 AM 49.3°F9.6°C 42.7°F5.9°C 78% 3.8 mph NW6.1 kmh NW 8.3 mph13.4 kmh 30.19 in1022.4 mb 0.00 in0.0 mm 0.00 in0.0 mm 0.01 in0.3 mm
12:00 PM 49.5°F9.7°C 42.2°F5.7°C 76% 3.8 mph NW6.1 kmh NW 7.6 mph12.2 kmh 30.19 in1022.4 mb 0.00 in0.0 mm 0.00 in0.0 mm 0.01 in0.3 mm
12:15 PM 49.8°F9.9°C 42.6°F5.9°C 76% 3.8 mph NNW6.1 kmh NNW 9.2 mph14.8 kmh 30.19 in1022.4 mb 0.00 in0.0 mm 0.00 in0.0 mm 0.01 in0.3 mm
12:30 PM 50.4°F10.2°C 42.7°F5.9°C 75% 2.2 mph NW3.5 kmh NW 7.6 mph12.2 kmh 30.19 in1022.4 mb 0.00 in0.0 mm 0.00 in0.0 mm 0.01 in0.3 mm
12:45 PM 50.5°F10.3°C 42.9°F6.1°C 75% 3.8 mph NW6.1 kmh NW 8.3 mph13.4 kmh 30.19 in1022.4 mb 0.00 in0.0 mm 0.00 in0.0 mm 0.01 in0.3 mm
01:00 PM 50.9°F10.5°C 43.3°F6.3°C 75% 3.1 mph NW5.0 kmh NW 13.6 mph21.9 kmh 30.18 in1022.0 mb 0.00 in0.0 mm 0.00 in0.0 mm 0.01 in0.3 mm
01:15 PM 50.5°F10.3°C 42.9°F6.1°C 75% 2.2 mph NW3.5 kmh NW 8.3 mph13.4 kmh 30.18 in1022.0 mb 0.00 in0.0 mm 0.00 in0.0 mm 0.01 in0.3 mm
01:30 PM 50.2°F10.1°C 42.6°F5.9°C 75% 2.2 mph NW3.5 kmh NW 12.1 mph19.5 kmh 30.18 in1022.0 mb 0.00 in0.0 mm 0.00 in0.0 mm 0.01 in0.3 mm
01:45 PM 49.5°F9.7°C 42.2°F5.7°C 76% 4.5 mph NW7.2 kmh NW 8.3 mph13.4 kmh 30.18 in1022.0 mb 0.00 in0.0 mm 0.00 in0.0 mm 0.01 in0.3 mm
02:00 PM 48.4°F9.1°C 41.8°F5.4°C 78% 2.2 mph NW3.5 kmh NW 9.2 mph14.8 kmh 30.17 in1021.7 mb 0.00 in0.0 mm 0.00 in0.0 mm 0.01 in0.3 mm
02:15 PM 47.7°F8.7°C 41.5°F5.3°C 79% 3.1 mph NW5.0 kmh NW 8.3 mph13.4 kmh 30.17 in1021.7 mb 0.00 in0.0 mm 0.00 in0.0 mm 0.01 in0.3 mm
02:30 PM 46.6°F8.1°C 40.7°F4.8°C 80% 2.2 mph NW3.5 kmh NW 8.3 mph13.4 kmh 30.17 in1021.7 mb 0.00 in0.0 mm 0.00 in0.0 mm 0.01 in0.3 mm
02:45 PM 45.7°F7.6°C 40.2°F4.6°C 81% 4.5 mph NNW7.2 kmh NNW 9.8 mph15.8 kmh 30.17 in1021.7 mb 0.00 in0.0 mm 0.00 in0.0 mm 0.01 in0.3 mm
03:00 PM 45.5°F7.5°C 40.3°F4.6°C 82% 5.4 mph NW8.7 kmh NW 8.3 mph13.4 kmh 30.19 in1022.4 mb 0.00 in0.0 mm 0.00 in0.0 mm 0.01 in0.3 mm
03:15 PM 45.0°F7.2°C 39.8°F4.3°C 82% 5.4 mph NW8.7 kmh NW 13.0 mph20.9 kmh 30.18 in1022.0 mb 0.00 in0.0 mm 0.00 in0.0 mm 0.01 in0.3 mm
03:30 PM 44.2°F6.8°C 39.4°F4.1°C 83% 4.5 mph NW7.2 kmh NW 10.7 mph17.2 kmh 30.18 in1022.0 mb 0.00 in0.0 mm 0.00 in0.0 mm 0.01 in0.3 mm
03:45 PM 43.7°F6.5°C 39.2°F4.0°C 84% 3.8 mph NNW6.1 kmh NNW 7.6 mph12.2 kmh 30.19 in1022.4 mb 0.00 in0.0 mm 0.00 in0.0 mm 0.01 in0.3 mm
04:00 PM 43.3°F6.3°C 39.1°F3.9°C 85% 2.2 mph NW3.5 kmh NW 6.9 mph11.1 kmh 30.19 in1022.4 mb 0.00 in0.0 mm 0.00 in0.0 mm 0.01 in0.3 mm
04:15 PM 43.2°F6.2°C 39.0°F3.9°C 85% 2.2 mph NNW3.5 kmh NNW 11.4 mph18.3 kmh 30.19 in1022.4 mb 0.00 in0.0 mm 0.00 in0.0 mm 0.01 in0.3 mm
04:30 PM 43.5°F6.4°C 39.3°F4.1°C 85% 1.6 mph NW2.6 kmh NW 7.6 mph12.2 kmh 30.19 in1022.4 mb 0.00 in0.0 mm 0.00 in0.0 mm 0.01 in0.3 mm
04:45 PM 43.2°F6.2°C 39.0°F3.9°C 85% 3.8 mph N6.1 kmh N 10.7 mph17.2 kmh 30.18 in1022.0 mb 0.00 in0.0 mm 0.00 in0.0 mm 0.01 in0.3 mm
05:00 PM 42.8°F6.0°C 38.9°F3.8°C 86% 3.1 mph NW5.0 kmh NW 10.7 mph17.2 kmh 30.18 in1022.0 mb 0.00 in0.0 mm 0.00 in0.0 mm 0.01 in0.3 mm
05:15 PM 42.4°F5.8°C 38.9°F3.8°C 87% 3.1 mph NNW5.0 kmh NNW 13.0 mph20.9 kmh 30.18 in1022.0 mb 0.00 in0.0 mm 0.00 in0.0 mm 0.01 in0.3 mm
05:30 PM 42.6°F5.9°C 39.0°F3.9°C 87% 2.2 mph NW3.5 kmh NW 9.2 mph14.8 kmh 30.18 in1022.0 mb 0.00 in0.0 mm 0.00 in0.0 mm 0.01 in0.3 mm
05:45 PM 42.4°F5.8°C 38.9°F3.8°C 87% 2.2 mph NNW3.5 kmh NNW 7.6 mph12.2 kmh 30.19 in1022.4 mb 0.00 in0.0 mm 0.00 in0.0 mm 0.01 in0.3 mm
06:00 PM 42.4°F5.8°C 38.9°F3.8°C 87% 1.6 mph NNW2.6 kmh NNW 6.0 mph9.7 kmh 30.19 in1022.4 mb 0.00 in0.0 mm 0.00 in0.0 mm 0.01 in0.3 mm
06:15 PM 42.3°F5.7°C 38.1°F3.4°C 85% 0.7 mph NNW1.1 kmh NNW 9.8 mph15.8 kmh 30.19 in1022.4 mb 0.00 in0.0 mm 0.00 in0.0 mm 0.01 in0.3 mm
06:30 PM 42.1°F5.6°C 37.6°F3.1°C 84% 6.9 mph NNW11.1 kmh NNW 14.5 mph23.3 kmh 30.19 in1022.4 mb 0.00 in0.0 mm 0.00 in0.0 mm 0.01 in0.3 mm
06:45 PM 41.5°F5.3°C 37.4°F3.0°C 85% 2.2 mph NNW3.5 kmh NNW 7.6 mph12.2 kmh 30.20 in1022.7 mb 0.00 in0.0 mm 0.00 in0.0 mm 0.01 in0.3 mm
07:00 PM 40.8°F4.9°C 37.0°F2.8°C 86% 1.6 mph NW2.6 kmh NW 6.0 mph9.7 kmh 30.19 in1022.4 mb 0.00 in0.0 mm 0.00 in0.0 mm 0.01 in0.3 mm
07:15 PM 40.1°F4.5°C 36.5°F2.5°C 87% 0.7 mph NW1.1 kmh NW 4.5 mph7.2 kmh 30.21 in1023.0 mb 0.00 in0.0 mm 0.00 in0.0 mm 0.01 in0.3 mm
07:30 PM 39.7°F4.3°C 36.5°F2.5°C 88% 2.2 mph NW3.5 kmh NW 5.4 mph8.7 kmh 30.21 in1023.0 mb 0.00 in0.0 mm 0.00 in0.0 mm 0.01 in0.3 mm
07:45 PM 40.6°F4.8°C 37.4°F3.0°C 88% 2.2 mph NNW3.5 kmh NNW 5.4 mph8.7 kmh 30.21 in1023.0 mb 0.00 in0.0 mm 0.00 in0.0 mm 0.01 in0.3 mm
08:00 PM 39.7°F4.3°C 36.8°F2.7°C 89% 3.1 mph N5.0 kmh N 6.9 mph11.1 kmh 30.21 in1023.0 mb 0.00 in0.0 mm 0.00 in0.0 mm 0.01 in0.3 mm
08:15 PM 39.7°F4.3°C 36.8°F2.7°C 89% 0.7 mph NNW1.1 kmh NNW 5.4 mph8.7 kmh 30.21 in1023.0 mb 0.00 in0.0 mm 0.00 in0.0 mm 0.01 in0.3 mm
08:30 PM 39.4°F4.1°C 36.4°F2.4°C 89% 1.6 mph N2.6 kmh N 6.0 mph9.7 kmh 30.21 in1023.0 mb 0.00 in0.0 mm 0.00 in0.0 mm 0.01 in0.3 mm
08:45 PM 39.6°F4.2°C 36.9°F2.7°C 90% 2.2 mph N3.5 kmh N 5.4 mph8.7 kmh 30.21 in1023.0 mb 0.00 in0.0 mm 0.00 in0.0 mm 0.01 in0.3 mm
09:00 PM 39.4°F4.1°C 36.7°F2.6°C 90% 1.6 mph N2.6 kmh N 5.4 mph8.7 kmh 30.22 in1023.4 mb 0.00 in0.0 mm 0.00 in0.0 mm 0.01 in0.3 mm
09:15 PM 38.8°F3.8°C 36.2°F2.3°C 90% 0.7 mph N1.1 kmh N 3.8 mph6.1 kmh 30.22 in1023.4 mb 0.00 in0.0 mm 0.00 in0.0 mm 0.01 in0.3 mm
09:30 PM 37.6°F3.1°C 34.9°F1.6°C 90% Calm Calm 0.7 mph1.1 kmh 30.23 in1023.7 mb 0.00 in0.0 mm 0.00 in0.0 mm 0.01 in0.3 mm
09:45 PM 36.3°F2.4°C 34.0°F1.1°C 91% Calm Calm -- 30.22 in1023.4 mb 0.00 in0.0 mm 0.00 in0.0 mm 0.01 in0.3 mm
10:00 PM 35.4°F1.9°C 33.3°F0.7°C 92% 0.7 mph SW1.1 kmh SW 1.6 mph2.6 kmh 30.22 in1023.4 mb 0.00 in0.0 mm 0.00 in0.0 mm 0.01 in0.3 mm
10:15 PM 34.7°F1.5°C 33.2°F0.7°C 94% 0.7 mph SSW1.1 kmh SSW 1.6 mph2.6 kmh 30.22 in1023.4 mb 0.00 in0.0 mm 0.00 in0.0 mm 0.01 in0.3 mm
10:30 PM 34.0°F1.1°C 32.4°F0.2°C 94% Calm Calm 1.6 mph2.6 kmh 30.23 in1023.7 mb 0.00 in0.0 mm 0.00 in0.0 mm 0.01 in0.3 mm
10:45 PM 33.3°F0.7°C 32.0°F0.0°C 95% Calm Calm 0.7 mph1.1 kmh 30.23 in1023.7 mb 0.00 in0.0 mm 0.00 in0.0 mm 0.01 in0.3 mm
11:00 PM 32.7°F0.4°C 31.7°F-0.2°C 96% 0.7 mph S1.1 kmh S 1.6 mph2.6 kmh 30.22 in1023.4 mb 0.00 in0.0 mm 0.00 in0.0 mm 0.01 in0.3 mm
11:15 PM 32.2°F0.1°C 31.4°F-0.3°C 97% Calm Calm 1.6 mph2.6 kmh 30.22 in1023.4 mb 0.01 in0.3 mm 0.04 in1.0 mm 0.02 in0.5 mm
11:30 PM 31.8°F-0.1°C 31.3°F-0.4°C 98% Calm Calm 0.7 mph1.1 kmh 30.22 in1023.4 mb 0.01 in0.3 mm 0.00 in0.0 mm 0.02 in0.5 mm
11:45 PM 31.3°F-0.4°C 30.8°F-0.7°C 98% Calm Calm 0.7 mph1.1 kmh 30.21 in1023.0 mb 0.01 in0.3 mm 0.00 in0.0 mm 0.02 in0.5 mm